»·PEaware :: N64TZ KMFR-KOTH

N64TZ :: KMFR-KOTH

FLIGHT INFORMATION

Flight Status: Arrived
Operator: Privately registered:
United States
More flights under this callsign
Pilot: David H. (11212)
Aircraft: PIPER PA-28 CHEROKEE ARCHER
(P28A)
More flights by this aircraft type
Origin: KMFR Rogue Valley Intl-Medford
United States
Destination: KOTH North Bend Mun
United States
More flights between these airports :: More routes between these airports
Route: +JAKSN1 OED V287 OTH
File this flight plan on PilotEdge
Remarks:
Altitude:
(Current/Filed)
8,000ft
Speed:
(Current/Filed)
115kts
Departed: 29-Dec-17 03:45 PM
Arrived: 29-Dec-17 05:23 PM
Distance/Time
Traveled:
87nm/1:37
Distance/Time
To Go:
Arrived

Flight Plot

Page will automatically refresh every two minutes.

Flight plan parsing failed; only flown route is shown


Map Options




Map Legend


Flown Route
Filed Route
Departure Airport
Arrival Airport
Navaid (VOR, NDB)
Fix

Horizontal Profiles

Position Reports

Time Latitude Longitude Heading Altitude Ground
Speed
29-Dec-17 15:31 42.368933 -122.873604 247 1336ft 0kts
29-Dec-17 15:32 42.368933 -122.873604 247 1336ft 0kts
29-Dec-17 15:33 42.368933 -122.873604 247 1336ft 0kts
29-Dec-17 15:34 42.368933 -122.873604 247 1336ft 0kts
29-Dec-17 15:35 42.368933 -122.873604 247 1336ft 0kts
29-Dec-17 15:36 42.368933 -122.873604 247 1336ft 0kts
29-Dec-17 15:37 42.368933 -122.873604 247 1336ft 0kts
29-Dec-17 15:38 42.368933 -122.873604 247 1336ft 0kts
29-Dec-17 15:39 42.368933 -122.873604 247 1336ft 0kts
29-Dec-17 15:40 42.368933 -122.873604 247 1336ft 0kts
29-Dec-17 15:41 42.368933 -122.873604 247 1336ft 0kts
29-Dec-17 15:42 42.368933 -122.873604 247 1336ft 0kts
29-Dec-17 15:43 42.368933 -122.873604 247 1336ft 0kts
29-Dec-17 15:44 42.368933 -122.873604 247 1336ft 0kts
29-Dec-17 15:45 42.368933 -122.873604 247 1336ft 0kts
29-Dec-17 15:46 42.368933 -122.873604 247 1336ft 0kts
29-Dec-17 15:47 42.368926 -122.872325 122 1336ft 8kts
29-Dec-17 15:48 42.366266 -122.870311 159 1336ft 12kts
29-Dec-17 15:49 42.363644 -122.868796 123 1336ft 0kts
29-Dec-17 15:50 42.363644 -122.868795 123 1336ft 0kts
29-Dec-17 15:51 42.371413 -122.871110 343 1454ft 76kts
29-Dec-17 15:52 42.390405 -122.881434 334 2213ft 77kts
29-Dec-17 15:53 42.407922 -122.893231 327 3007ft 67kts
29-Dec-17 15:54 42.425361 -122.901280 330 3625ft 67kts
29-Dec-17 15:55 42.443451 -122.907308 329 4192ft 66kts
29-Dec-17 15:56 42.463200 -122.909504 337 4661ft 72kts
29-Dec-17 15:57 42.481753 -122.915180 297 5078ft 61kts
29-Dec-17 15:58 42.489166 -122.933803 301 5533ft 56kts
29-Dec-17 15:59 42.503521 -122.922376 99 5861ft 126kts
29-Dec-17 16:00 42.484769 -122.910572 236 6263ft 57kts
29-Dec-17 16:01 42.487792 -122.921551 348 6577ft 90kts
29-Dec-17 16:02 42.510527 -122.919371 321 6876ft 74kts
29-Dec-17 16:03 42.528648 -122.904079 102 7152ft 124kts
29-Dec-17 16:04 42.511545 -122.892865 222 7439ft 55kts
29-Dec-17 16:05 42.500692 -122.902824 223 7697ft 53kts
29-Dec-17 16:06 42.486076 -122.906962 231 7956ft 47kts
29-Dec-17 16:07 42.486640 -122.921580 288 7979ft 69kts
29-Dec-17 16:08 42.500419 -122.942227 296 7950ft 77kts
29-Dec-17 16:09 42.516479 -122.962322 292 8001ft 77kts
29-Dec-17 16:10 42.532796 -122.982896 297 8066ft 83kts
29-Dec-17 16:11 42.549575 -123.005768 298 8026ft 89kts
29-Dec-17 16:12 42.567627 -123.029612 294 7936ft 87kts
29-Dec-17 16:13 42.585036 -123.052660 296 7925ft 86kts
29-Dec-17 16:14 42.601235 -123.074743 296 7889ft 86kts
29-Dec-17 16:15 42.618387 -123.096947 295 7856ft 86kts
29-Dec-17 16:16 42.635773 -123.119084 301 7856ft 91kts
29-Dec-17 16:17 42.654391 -123.140484 296 7878ft 88kts
29-Dec-17 16:18 42.669911 -123.163637 293 7917ft 88kts
29-Dec-17 16:19 42.686993 -123.186731 295 7957ft 90kts
29-Dec-17 16:20 42.704311 -123.209913 289 7997ft 86kts
29-Dec-17 16:21 42.721067 -123.233461 292 7993ft 91kts
29-Dec-17 16:22 42.738515 -123.257113 283 8029ft 82kts
29-Dec-17 16:23 42.756393 -123.281037 298 7960ft 94kts
29-Dec-17 16:24 42.774747 -123.303935 292 7877ft 91kts
29-Dec-17 16:25 42.790788 -123.325223 295 7865ft 91kts
29-Dec-17 16:26 42.808460 -123.346132 295 7856ft 90kts
29-Dec-17 16:27 42.826031 -123.366327 296 7874ft 90kts
29-Dec-17 16:28 42.841134 -123.388692 288 7878ft 84kts
29-Dec-17 16:29 42.856966 -123.411051 290 7887ft 86kts
29-Dec-17 16:30 42.870182 -123.430135 292 7893ft 87kts
29-Dec-17 16:31 42.883592 -123.448984 287 7898ft 84kts
29-Dec-17 16:32 42.898860 -123.472756 293 7911ft 87kts
29-Dec-17 16:33 42.915818 -123.495809 291 7904ft 87kts
29-Dec-17 16:34 42.931790 -123.519441 293 7897ft 88kts
29-Dec-17 16:35 42.950146 -123.541301 295 7897ft 90kts
29-Dec-17 16:36 42.967934 -123.564234 292 7890ft 89kts
29-Dec-17 16:37 42.985883 -123.587646 292 7884ft 89kts
29-Dec-17 16:38 43.004539 -123.610699 291 7879ft 89kts
29-Dec-17 16:39 43.021027 -123.634822 292 7871ft 89kts
29-Dec-17 16:40 43.039062 -123.657884 290 7897ft 86kts
29-Dec-17 16:41 43.049332 -123.683472 270 7932ft 73kts
29-Dec-17 16:42 43.057400 -123.709713 272 7973ft 74kts
29-Dec-17 16:43 43.065285 -123.736031 272 7974ft 74kts
29-Dec-17 16:44 43.074473 -123.762054 276 7973ft 78kts
29-Dec-17 16:45 43.084076 -123.788413 274 7937ft 77kts
29-Dec-17 16:46 43.092520 -123.814839 273 7907ft 76kts
29-Dec-17 16:47 43.100804 -123.839881 274 7879ft 77kts
29-Dec-17 16:48 43.110202 -123.866091 274 7828ft 75kts
29-Dec-17 16:49 43.119133 -123.891698 277 7850ft 72kts
29-Dec-17 16:50 43.126647 -123.915630 272 7880ft 64kts
29-Dec-17 16:51 43.134492 -123.938673 276 7885ft 68kts
29-Dec-17 16:52 43.142395 -123.961652 278 7899ft 69kts
29-Dec-17 16:53 43.148188 -123.984613 271 7909ft 65kts
29-Dec-17 16:54 43.155275 -124.007556 273 7923ft 65kts
29-Dec-17 16:55 43.162955 -124.030370 275 7935ft 67kts
29-Dec-17 16:56 43.169793 -124.053221 273 7944ft 65kts
29-Dec-17 16:57 43.176842 -124.075928 270 7951ft 64kts
29-Dec-17 16:58 43.183077 -124.098603 271 7952ft 65kts
29-Dec-17 16:59 43.188837 -124.117568 274 7964ft 65kts
29-Dec-17 17:00 43.197554 -124.144410 274 7915ft 69kts
29-Dec-17 17:01 43.206577 -124.167971 272 7880ft 67kts
29-Dec-17 17:02 43.214489 -124.192447 272 7617ft 74kts
29-Dec-17 17:03 43.221481 -124.221355 275 6929ft 88kts
29-Dec-17 17:04 43.229393 -124.247149 278 6379ft 92kts
29-Dec-17 17:05 43.241452 -124.280135 277 5648ft 103kts
29-Dec-17 17:06 43.253702 -124.315652 278 4956ft 103kts
29-Dec-17 17:07 43.266173 -124.350643 275 4852ft 95kts
29-Dec-17 17:08 43.276552 -124.379641 273 4788ft 80kts
29-Dec-17 17:09 43.285567 -124.406201 273 4898ft 74kts
29-Dec-17 17:10 43.294355 -124.432023 271 4947ft 74kts
29-Dec-17 17:11 43.302401 -124.457674 272 5017ft 73kts
29-Dec-17 17:12 43.309250 -124.483780 267 5019ft 72kts
29-Dec-17 17:13 43.311166 -124.508800 230 4963ft 60kts
29-Dec-17 17:14 43.302502 -124.527727 232 4944ft 58kts
29-Dec-17 17:15 43.294046 -124.546702 236 4914ft 59kts
29-Dec-17 17:16 43.285997 -124.566119 234 4887ft 58kts
29-Dec-17 17:17 43.278559 -124.586083 230 4857ft 58kts
29-Dec-17 17:18 43.281078 -124.562950 13 4802ft 131kts
29-Dec-17 17:19 43.303114 -124.525403 64 4829ft 128kts
29-Dec-17 17:20 43.325214 -124.486734 58 4630ft 125kts
29-Dec-17 17:21 43.341883 -124.444436 71 3652ft 130kts
29-Dec-17 17:22 43.354995 -124.401670 72 2697ft 120kts
29-Dec-17 17:23 43.371908 -124.363173 72 1742ft 114kts
29-Dec-17 17:24 43.387082 -124.325653 71 1156ft 115kts
29-Dec-17 17:25 43.396846 -124.286724 83 1066ft 107kts
29-Dec-17 17:26 43.405630 -124.249979 95 969ft 94kts
29-Dec-17 17:27 43.412144 -124.219060 14 569ft 100kts
29-Dec-17 17:28 43.424019 -124.238763 229 200ft 62kts
29-Dec-17 17:29 43.418797 -124.250657 234 20ft 20kts
29-Dec-17 17:30 43.417715 -124.251225 148 20ft 1kts
29-Dec-17 17:31 43.416995 -124.249263 92 20ft 0kts

Navigation Log

Ident Type
Flight plan parsing failed, navigation log unavailable